Portada
METAR-TAF:

METAR-TAF

Aeroports :

Brenner Field

Falls City, Nebraska, Estats Units d'Amèrica

latitud: 40-04-44N, longitud: 095-35-31W, altitud: 300 m

Observació

L'informe es va fer fa 35 minuts, a les 15:53 UTC
Vent 9 kt del Sud/Sud-Est
Temperatura 7°C
Humitat 70%
Pressió 1009 hPa
Visibilitat: 16.1 km

METAR: KFNB 171553Z AUTO 16009KT 10SM 07/02 A2981 RMK AO2 SLP098 T00670022 $

Hora: 10:28 (16:28 UTC)


TAF: manca

Observacions i pronòstics meteorològics de més de 4000 aeroports (METAR i TAF).

Les estacions disponibles són els punts grocs i vermells al mapa.

Posi el ratolí al punt desitjat per veure el nom de l'estació.

Feu clic per veure les observacions i els pronòstics meteorològics.

Per canviar el mapa: feu clic els botons verds amb una creu de color negre per apropar; al botó verd amb un guió per allunyar la imatge; o en les fletxes verdes per a mapes adjacents.


METAR-TAF: